Shiotamaru No8 — JD3239 — position and weather

sailwx.info

Track history (hours):
 
Tides and Currents Weather Stations Pressure Air Temp Water Temp Dewpoint Dewpoint Depression Visibility Wind Speed Wind Dir Waves Ship Positions

Shiotamaru No8

Last reported at 2017-Oct-17 19:53 UTC. Time now 2017-Oct-17 20:30 UTC.
Position N 35°30' E 139°46'.

Length 65 m.

Type: Ship. MMSI: 431002897.

Date/timePositionNaut miles runAvg speedWind from/ knotsBaromVisibWave heightAir tempDewpointWater temp
2017-Oct-17 19:53N 35°30' E 139°46'0 0.0
2017-Oct-17 19:29N 35°30' E 139°46'0 0.0
2017-Oct-17 18:53N 35°30' E 139°46'0 0.0
2017-Oct-17 18:29N 35°30' E 139°46'0 0.0
2017-Oct-17 17:59N 35°30' E 139°46'0 0.0
2017-Oct-17 17:11N 35°30' E 139°46'0 0.0
2017-Oct-17 16:53N 35°30' E 139°46'0 0.0
2017-Oct-17 16:26N 35°30' E 139°46'0 0.0
2017-Oct-17 15:53N 35°30' E 139°46'0 0.0
2017-Oct-17 13:14N 35°30' E 139°46'0 0.0
2017-Oct-17 12:41N 35°30' E 139°46'0 0.0
2017-Oct-17 12:26N 35°30' E 139°46'0 0.0
2017-Oct-17 11:59N 35°30' E 139°46'0 0.0
2017-Oct-17 10:41N 35°30' E 139°46'0 0.0
2017-Oct-17 10:26N 35°30' E 139°46'0 0.0
2017-Oct-17 09:32N 35°30' E 139°46'0 0.0
2017-Oct-17 09:23N 35°30' E 139°46'0 0.0
2017-Oct-17 08:56N 35°30' E 139°46'0 0.0
2017-Oct-17 08:26N 35°30' E 139°46'0 0.0
2017-Oct-17 07:56N 35°30' E 139°46'0 0.0
2017-Oct-17 06:38N 35°30' E 139°46'0 0.0
2017-Oct-17 06:29N 35°30' E 139°46'0 0.0
2017-Oct-17 03:08N 35°30' E 139°46'0 0.0
2017-Oct-17 02:53N 35°30' E 139°46'0 0.0
2017-Oct-17 02:26N 35°30' E 139°46'0 0.0
2017-Oct-17 01:26N 35°30' E 139°46'0 0.0
2017-Oct-17 00:53N 35°30' E 139°46'0 0.0
2017-Oct-16 22:50N 35°30' E 139°46'0 0.0
2017-Oct-16 22:26N 35°30' E 139°46'0 0.0
2017-Oct-16 21:56N 35°30' E 139°46'0 0.0
2017-Oct-16 21:29N 35°30' E 139°46'0 0.0
2017-Oct-16 20:44N 35°30' E 139°46'0 0.0
2017-Oct-16 20:26N 35°30' E 139°46'0 0.0
2017-Oct-16 19:38N 35°30' E 139°46'0 0.0
2017-Oct-16 16:26N 35°30' E 139°46'0 0.0
2017-Oct-16 15:26N 35°30' E 139°46'0 0.0
2017-Oct-16 14:56N 35°30' E 139°46'0 0.0
2017-Oct-16 10:38N 35°30' E 139°46'0 0.0
2017-Oct-16 09:20N 35°30' E 139°46'0 0.0
2017-Oct-16 08:50N 35°30' E 139°46'0 0.0
2017-Oct-16 07:47N 35°30' E 139°46'0 0.0
2017-Oct-16 07:26N 35°30' E 139°46'0 0.0
2017-Oct-16 06:50N 35°30' E 139°46'0 0.0
2017-Oct-16 06:20N 35°30' E 139°46'0 0.0
2017-Oct-16 05:56N 35°30' E 139°46'0 0.0
2017-Oct-16 04:38N 35°30' E 139°46'0 0.0
2017-Oct-16 04:20N 35°30' E 139°46'0 0.0
2017-Oct-16 03:56N 35°30' E 139°46'1 0.6
2017-Oct-16 01:38N 35°30' E 139°44'0 0.2
2017-Oct-16 00:37N 35°30' E 139°44'0 0.0
2017-Oct-15 23:40N 35°30' E 139°44'0 0.0
2017-Oct-15 23:28N 35°30' E 139°44'0 0.0
2017-Oct-15 22:58N 35°30' E 139°44'3 0.2
2017-Oct-15 07:28N 35°28' E 139°47'710.9
2017-Oct-15 06:50N 35°21' E 139°45'4 9.7
2017-Oct-15 06:23N 35°17' E 139°45'410.1
2017-Oct-15 06:00N 35°13' E 139°47'611.1
2017-Oct-15 05:30N 35°08' E 139°45'238 9.1
2017-Oct-14 03:30N 34°07' E 135°06'6 1.7
2017-Oct-14 00:15N 34°09' E 135°12'0 0.4
2017-Oct-13 23:46N 34°09' E 135°12'0 0.0
2017-Oct-13 23:19N 34°09' E 135°12'0 0.0
2017-Oct-13 22:37N 34°09' E 135°12'0 0.0
2017-Oct-13 22:28N 34°09' E 135°12'0 0.0
2017-Oct-13 21:58N 34°09' E 135°12'0 0.8
2017-Oct-13 21:29N 34°09' E 135°12'0 0.2
2017-Oct-13 20:57N 34°09' E 135°12'0 0.0
2017-Oct-13 20:30N 34°09' E 135°12'0 0.0
2017-Oct-13 18:58N 34°09' E 135°12'  
2017-Oct-08 02:24N 34°09' E 135°11'1 0.4
2017-Oct-08 00:59N 34°09' E 135°12'2 2.5
2017-Oct-08 00:11N 34°09' E 135°10'0 0.2
2017-Oct-07 23:56N 34°09' E 135°10'0 0.0
2017-Oct-07 23:23N 34°09' E 135°10'0 0.0
2017-Oct-07 22:02N 34°10' E 135°10'0 0.0
2017-Oct-07 21:56N 34°10' E 135°10'0 0.0
2017-Oct-07 21:29N 34°10' E 135°10'0 0.0
2017-Oct-07 20:56N 34°10' E 135°10'0 0.0
2017-Oct-07 20:29N 34°10' E 135°10'0 0.0
2017-Oct-07 19:59N 34°09' E 135°10'  
Track history (hours):
 
Tides and Currents Weather Stations Pressure Air Temp Water Temp Dewpoint Dewpoint Depression Visibility Wind Speed Wind Dir Waves Ship Positions

Shiotamaru No8

Last reported at 2017-Oct-17 19:53 UTC. Time now 2017-Oct-17 20:30 UTC.
Position N 35°30' E 139°46'.

Length 65 m.

Type: Ship. MMSI: 431002897.

Date/timePositionNaut miles runAvg speedWind from/ knotsBaromVisibWave heightAir tempDewpointWater temp
2017-Oct-17 19:53N 35°30' E 139°46'0 0.0
2017-Oct-17 19:29N 35°30' E 139°46'0 0.0
2017-Oct-17 18:53N 35°30' E 139°46'0 0.0
2017-Oct-17 18:29N 35°30' E 139°46'0 0.0
2017-Oct-17 17:59N 35°30' E 139°46'0 0.0
2017-Oct-17 17:11N 35°30' E 139°46'0 0.0
2017-Oct-17 16:53N 35°30' E 139°46'0 0.0
2017-Oct-17 16:26N 35°30' E 139°46'0 0.0
2017-Oct-17 15:53N 35°30' E 139°46'0 0.0
2017-Oct-17 13:14N 35°30' E 139°46'0 0.0
2017-Oct-17 12:41N 35°30' E 139°46'0 0.0
2017-Oct-17 12:26N 35°30' E 139°46'0 0.0
2017-Oct-17 11:59N 35°30' E 139°46'0 0.0
2017-Oct-17 10:41N 35°30' E 139°46'0 0.0
2017-Oct-17 10:26N 35°30' E 139°46'0 0.0
2017-Oct-17 09:32N 35°30' E 139°46'0 0.0
2017-Oct-17 09:23N 35°30' E 139°46'0 0.0
2017-Oct-17 08:56N 35°30' E 139°46'0 0.0
2017-Oct-17 08:26N 35°30' E 139°46'0 0.0
2017-Oct-17 07:56N 35°30' E 139°46'0 0.0
2017-Oct-17 06:38N 35°30' E 139°46'0 0.0
2017-Oct-17 06:29N 35°30' E 139°46'0 0.0
2017-Oct-17 03:08N 35°30' E 139°46'0 0.0
2017-Oct-17 02:53N 35°30' E 139°46'0 0.0
2017-Oct-17 02:26N 35°30' E 139°46'0 0.0
2017-Oct-17 01:26N 35°30' E 139°46'0 0.0
2017-Oct-17 00:53N 35°30' E 139°46'0 0.0
2017-Oct-16 22:50N 35°30' E 139°46'0 0.0
2017-Oct-16 22:26N 35°30' E 139°46'0 0.0
2017-Oct-16 21:56N 35°30' E 139°46'0 0.0
2017-Oct-16 21:29N 35°30' E 139°46'0 0.0
2017-Oct-16 20:44N 35°30' E 139°46'0 0.0
2017-Oct-16 20:26N 35°30' E 139°46'0 0.0
2017-Oct-16 19:38N 35°30' E 139°46'0 0.0
2017-Oct-16 16:26N 35°30' E 139°46'0 0.0
2017-Oct-16 15:26N 35°30' E 139°46'0 0.0
2017-Oct-16 14:56N 35°30' E 139°46'0 0.0
2017-Oct-16 10:38N 35°30' E 139°46'0 0.0
2017-Oct-16 09:20N 35°30' E 139°46'0 0.0
2017-Oct-16 08:50N 35°30' E 139°46'0 0.0
2017-Oct-16 07:47N 35°30' E 139°46'0 0.0
2017-Oct-16 07:26N 35°30' E 139°46'0 0.0
2017-Oct-16 06:50N 35°30' E 139°46'0 0.0
2017-Oct-16 06:20N 35°30' E 139°46'0 0.0
2017-Oct-16 05:56N 35°30' E 139°46'0 0.0
2017-Oct-16 04:38N 35°30' E 139°46'0 0.0
2017-Oct-16 04:20N 35°30' E 139°46'0 0.0
2017-Oct-16 03:56N 35°30' E 139°46'1 0.6
2017-Oct-16 01:38N 35°30' E 139°44'0 0.2
2017-Oct-16 00:37N 35°30' E 139°44'0 0.0
2017-Oct-15 23:40N 35°30' E 139°44'0 0.0
2017-Oct-15 23:28N 35°30' E 139°44'0 0.0
2017-Oct-15 22:58N 35°30' E 139°44'3 0.2
2017-Oct-15 07:28N 35°28' E 139°47'710.9
2017-Oct-15 06:50N 35°21' E 139°45'4 9.7
2017-Oct-15 06:23N 35°17' E 139°45'410.1
2017-Oct-15 06:00N 35°13' E 139°47'611.1
2017-Oct-15 05:30N 35°08' E 139°45'238 9.1
2017-Oct-14 03:30N 34°07' E 135°06'6 1.7
2017-Oct-14 00:15N 34°09' E 135°12'0 0.4
2017-Oct-13 23:46N 34°09' E 135°12'0 0.0
2017-Oct-13 23:19N 34°09' E 135°12'0 0.0
2017-Oct-13 22:37N 34°09' E 135°12'0 0.0
2017-Oct-13 22:28N 34°09' E 135°12'0 0.0
2017-Oct-13 21:58N 34°09' E 135°12'0 0.8
2017-Oct-13 21:29N 34°09' E 135°12'0 0.2
2017-Oct-13 20:57N 34°09' E 135°12'0 0.0
2017-Oct-13 20:30N 34°09' E 135°12'0 0.0
2017-Oct-13 18:58N 34°09' E 135°12'  
2017-Oct-08 02:24N 34°09' E 135°11'1 0.4
2017-Oct-08 00:59N 34°09' E 135°12'2 2.5
2017-Oct-08 00:11N 34°09' E 135°10'0 0.2
2017-Oct-07 23:56N 34°09' E 135°10'0 0.0
2017-Oct-07 23:23N 34°09' E 135°10'0 0.0
2017-Oct-07 22:02N 34°10' E 135°10'0 0.0
2017-Oct-07 21:56N 34°10' E 135°10'0 0.0
2017-Oct-07 21:29N 34°10' E 135°10'0 0.0
2017-Oct-07 20:56N 34°10' E 135°10'0 0.0
2017-Oct-07 20:29N 34°10' E 135°10'0 0.0
2017-Oct-07 19:59N 34°09' E 135°10'  

Dump ship's entire track history